createdAt,value
2024-04-13T00:01:10.388Z,100707.89
2024-04-13T00:04:08.586Z,100696.45
2024-04-13T00:06:43.209Z,100696.48
2024-04-13T00:09:18.223Z,100697.52
2024-04-13T00:11:50.602Z,100693.40
2024-04-13T00:14:23.844Z,100693.65
2024-04-13T00:16:58.539Z,100688.02
2024-04-13T00:19:32.402Z,100700.27
2024-04-13T00:22:09.592Z,100700.84
2024-04-13T00:24:45.124Z,100696.70
2024-04-13T00:27:21.197Z,100693.73
2024-04-13T00:29:56.262Z,100693.98
2024-04-13T00:32:28.591Z,100695.06
2024-04-13T00:35:01.040Z,100695.27
2024-04-13T00:37:35.531Z,100697.63
2024-04-13T00:40:10.744Z,100695.75
2024-04-13T00:42:46.740Z,100698.42
2024-04-13T00:45:19.509Z,100699.30
2024-04-13T00:47:53.896Z,100694.96
2024-04-13T00:50:30.074Z,100695.71
2024-04-13T00:53:05.014Z,100699.63
2024-04-13T00:55:40.833Z,100707.70
2024-04-13T00:58:15.357Z,100702.06
2024-04-13T01:00:48.828Z,100706.95
2024-04-13T01:03:23.654Z,100703.63
2024-04-13T01:05:56.880Z,100696.83
2024-04-13T01:08:30.164Z,100695.85
2024-04-13T01:11:05.288Z,100692.25
2024-04-13T01:13:40.023Z,100691.09
2024-04-13T01:16:16.196Z,100689.47
2024-04-13T01:18:48.975Z,100686.51
2024-04-13T01:21:22.452Z,100685.23
2024-04-13T01:24:00.566Z,100689.44
2024-04-13T01:26:39.504Z,100685.98
2024-04-13T01:29:15.355Z,100687.06
2024-04-13T01:31:48.300Z,100690.89
2024-04-13T01:34:26.137Z,100690.67
2024-04-13T01:36:59.956Z,100691.38
2024-04-13T01:39:33.557Z,100688.69
2024-04-13T01:42:07.611Z,100686.55
2024-04-13T01:44:39.887Z,100683.25
2024-04-13T01:47:13.101Z,100682.94
2024-04-13T01:49:45.951Z,100682.80
2024-04-13T01:52:18.264Z,100684.60
2024-04-13T01:54:50.174Z,100679.91
2024-04-13T01:57:25.579Z,100679.78
2024-04-13T01:59:58.113Z,100685.13
2024-04-13T02:02:30.816Z,100691.99
2024-04-13T02:05:04.740Z,100695.77
2024-04-13T02:07:40.045Z,100688.37
2024-04-13T02:10:16.301Z,100691.75
2024-04-13T02:12:48.279Z,100690.67
2024-04-13T02:15:20.569Z,100689.16
2024-04-13T02:17:57.696Z,100683.27
2024-04-13T02:20:30.165Z,100684.81
2024-04-13T02:23:06.136Z,100680.45
2024-04-13T02:25:38.193Z,100681.95
2024-04-13T02:28:10.719Z,100678.34
2024-04-13T02:30:44.117Z,100676.86
2024-04-13T02:33:18.250Z,100680.66
2024-04-13T02:36:01.417Z,100680.11
2024-04-13T02:38:35.109Z,100676.11
2024-04-13T02:41:13.754Z,100672.13
2024-04-13T02:43:46.398Z,100674.79
2024-04-13T02:46:18.776Z,100672.67
2024-04-13T02:48:51.132Z,100674.92
2024-04-13T02:51:26.785Z,100670.05
2024-04-13T02:54:00.227Z,100663.75
2024-04-13T02:56:35.994Z,100661.41
2024-04-13T02:59:08.382Z,100659.36
2024-04-13T03:01:41.481Z,100658.55
2024-04-13T03:04:19.265Z,100659.42
2024-04-13T03:06:55.316Z,100657.18
2024-04-13T03:09:30.686Z,100660.31
2024-04-13T03:12:03.935Z,100661.07
2024-04-13T03:14:36.391Z,100654.18
2024-04-13T03:17:08.895Z,100662.74
2024-04-13T03:19:41.628Z,100651.41
2024-04-13T03:22:19.433Z,100642.15
2024-04-13T03:24:52.406Z,100643.63
2024-04-13T03:27:25.220Z,100648.91
2024-04-13T03:29:58.066Z,100642.85
2024-04-13T03:32:30.234Z,100655.23
2024-04-13T03:35:10.879Z,100648.97
2024-04-13T03:37:45.174Z,100641.53
2024-04-13T03:40:17.754Z,100639.16
2024-04-13T03:42:49.979Z,100643.73
2024-04-13T03:45:24.476Z,100641.59
2024-04-13T03:47:57.406Z,100633.93
2024-04-13T03:50:29.907Z,100624.17
2024-04-13T03:53:02.924Z,100618.73
2024-04-13T03:55:35.799Z,100617.52
2024-04-13T03:58:08.015Z,100623.48
2024-04-13T04:00:40.117Z,100631.81
2024-04-13T04:03:15.909Z,100628.61
2024-04-13T04:05:52.194Z,100629.27
2024-04-13T04:08:24.822Z,100630.45
2024-04-13T04:10:58.039Z,100631.41
2024-04-13T04:13:30.877Z,100637.06
2024-04-13T04:16:04.463Z,100636.76
2024-04-13T04:18:39.984Z,100646.05
2024-04-13T04:21:13.701Z,100644.98
2024-04-13T04:23:46.685Z,100649.21
2024-04-13T04:26:18.986Z,100664.57
2024-04-13T04:28:53.343Z,100669.48
2024-04-13T04:31:28.174Z,100669.83
2024-04-13T04:34:02.290Z,100668.41
2024-04-13T04:36:40.788Z,100671.01
2024-04-13T04:39:19.048Z,100669.13
2024-04-13T04:41:53.298Z,100669.48
2024-04-13T04:44:29.639Z,100673.13
2024-04-13T04:47:02.485Z,100678.30
2024-04-13T04:49:36.767Z,100670.61
2024-04-13T04:52:16.711Z,100672.96
2024-04-13T04:54:48.680Z,100673.64
2024-04-13T04:57:21.833Z,100674.29
2024-04-13T04:59:58.353Z,100678.55
2024-04-13T05:02:30.654Z,100669.64
2024-04-13T05:05:10.019Z,100673.36
2024-04-13T05:07:44.653Z,100670.86
2024-04-13T05:10:18.623Z,100669.45
2024-04-13T05:12:50.824Z,100669.55
2024-04-13T05:15:26.103Z,100666.83
2024-04-13T05:17:58.329Z,100673.31
2024-04-13T05:20:30.763Z,100682.96
2024-04-13T05:23:06.452Z,100685.77
2024-04-13T05:25:38.367Z,100685.91
2024-04-13T05:28:10.671Z,100682.23
2024-04-13T05:30:58.652Z,100681.32
2024-04-13T05:33:32.472Z,100687.52
2024-04-13T05:36:07.776Z,100692.61
2024-04-13T05:38:42.227Z,100693.09
2024-04-13T05:41:14.971Z,100695.57
2024-04-13T05:43:47.946Z,100696.25
2024-04-13T05:46:21.745Z,100698.05
2024-04-13T05:48:55.998Z,100697.55
2024-04-13T05:51:28.448Z,100701.77
2024-04-13T05:54:00.965Z,100702.02
2024-04-13T05:56:36.553Z,100702.73
2024-04-13T05:59:09.218Z,100703.59
2024-04-13T06:01:43.777Z,100700.05
2024-04-13T06:04:16.988Z,100699.60
2024-04-13T06:06:52.444Z,100696.14
2024-04-13T06:09:24.915Z,100700.77
2024-04-13T06:11:58.105Z,100696.49
2024-04-13T06:14:32.365Z,100700.02
2024-04-13T06:17:04.597Z,100696.09
2024-04-13T06:19:38.017Z,100693.61
2024-04-13T06:22:13.760Z,100693.49
2024-04-13T06:24:46.310Z,100687.77
2024-04-13T06:27:18.477Z,100683.92
2024-04-13T06:29:55.496Z,100682.55
2024-04-13T06:32:28.218Z,100682.04
2024-04-13T06:35:00.807Z,100688.02
2024-04-13T06:37:35.793Z,100689.30
2024-04-13T06:40:17.505Z,100680.80
2024-04-13T06:42:49.731Z,100678.71
2024-04-13T06:45:22.551Z,100672.66
2024-04-13T06:47:54.971Z,100673.80
2024-04-13T06:50:28.113Z,100673.73
2024-04-13T06:53:00.161Z,100667.50
2024-04-13T06:55:36.049Z,100664.23
2024-04-13T06:58:08.896Z,100658.25
2024-04-13T07:00:42.317Z,100650.43
2024-04-13T07:03:17.299Z,100649.47
2024-04-13T07:05:55.877Z,100652.13
2024-04-13T07:08:29.546Z,100653.52
2024-04-13T07:11:04.759Z,100654.13
2024-04-13T07:13:39.574Z,100651.04
2024-04-13T07:16:13.422Z,100652.93
2024-04-13T07:18:48.004Z,100647.28
2024-04-13T07:21:21.071Z,100651.25
2024-04-13T07:23:54.657Z,100648.91
2024-04-13T07:26:27.079Z,100642.20
2024-04-13T07:28:58.784Z,100641.61
2024-04-13T07:31:31.048Z,100635.52
2024-04-13T07:34:05.245Z,100633.26
2024-04-13T07:36:38.144Z,100635.18
2024-04-13T07:39:14.403Z,100629.98
2024-04-13T07:41:47.114Z,100629.14
2024-04-13T07:44:19.161Z,100625.67
2024-04-13T07:46:52.184Z,100628.19
2024-04-13T07:49:28.029Z,100622.83
2024-04-13T07:52:03.284Z,100631.14
2024-04-13T07:54:37.721Z,100620.70
2024-04-13T07:57:10.194Z,100620.05
2024-04-13T07:59:44.822Z,100623.42
2024-04-13T08:02:17.942Z,100619.48
2024-04-13T08:04:54.188Z,100619.98
2024-04-13T08:07:26.780Z,100623.98
2024-04-13T08:09:58.638Z,100611.31
2024-04-13T08:12:33.310Z,100610.14
2024-04-13T08:15:09.754Z,100615.77
2024-04-13T08:17:42.352Z,100614.16
2024-04-13T08:20:17.649Z,100616.85
2024-04-13T08:22:50.271Z,100618.20
2024-04-13T08:25:25.382Z,100617.30
2024-04-13T08:27:58.000Z,100612.63
2024-04-13T08:30:30.804Z,100606.79
2024-04-13T08:33:05.991Z,100602.64
2024-04-13T08:35:38.233Z,100598.54
2024-04-13T08:38:14.334Z,100599.08
2024-04-13T08:40:52.275Z,100593.60
2024-04-13T08:43:26.707Z,100593.69
2024-04-13T08:45:59.493Z,100592.48
2024-04-13T08:48:32.458Z,100591.09
2024-04-13T08:51:08.064Z,100585.52
2024-04-13T08:53:45.466Z,100588.05
2024-04-13T08:56:22.209Z,100582.81
2024-04-13T08:58:56.255Z,100579.69
2024-04-13T09:01:28.827Z,100579.41
2024-04-13T09:04:02.435Z,100571.84
2024-04-13T09:06:38.606Z,100573.47
2024-04-13T09:09:13.124Z,100574.70
2024-04-13T09:11:46.824Z,100574.33
2024-04-13T09:14:18.847Z,100575.63
2024-04-13T09:16:52.173Z,100571.21
2024-04-13T09:19:25.357Z,100564.39
2024-04-13T09:21:58.214Z,100561.08
2024-04-13T09:24:40.845Z,100560.25
2024-04-13T09:27:22.451Z,100558.99
2024-04-13T09:29:55.295Z,100561.05
2024-04-13T09:32:29.175Z,100560.61
2024-04-13T09:35:15.556Z,100557.02
2024-04-13T09:37:48.887Z,100555.83
2024-04-13T09:40:23.549Z,100553.84
2024-04-13T09:42:58.292Z,100549.08
2024-04-13T09:45:34.784Z,100542.14
2024-04-13T09:48:11.054Z,100538.73
2024-04-13T09:50:46.637Z,100538.34
2024-04-13T09:53:19.433Z,100537.38
2024-04-13T09:55:52.473Z,100532.15
2024-04-13T09:58:27.997Z,100527.52
2024-04-13T10:01:03.524Z,100533.54
2024-04-13T10:03:36.269Z,100532.81
2024-04-13T10:06:16.520Z,100524.51
2024-04-13T10:08:51.050Z,100523.38
2024-04-13T10:11:28.324Z,100521.08
2024-04-13T10:14:01.799Z,100519.66
2024-04-13T10:16:36.350Z,100506.79
2024-04-13T10:19:14.458Z,100506.54
2024-04-13T10:21:52.082Z,100503.43
2024-04-13T10:24:29.286Z,100501.48
2024-04-13T10:27:10.366Z,100498.48
2024-04-13T10:29:49.494Z,100494.39
2024-04-13T10:32:26.443Z,100489.34
2024-04-13T10:35:08.072Z,100494.02
2024-04-13T10:37:40.482Z,100485.30
2024-04-13T10:40:24.833Z,100477.75
2024-04-13T10:43:07.597Z,100478.09
2024-04-13T10:45:40.716Z,100472.90
2024-04-13T10:48:17.211Z,100464.87
2024-04-13T10:50:52.466Z,100471.13
2024-04-13T10:53:27.468Z,100468.05
2024-04-13T10:56:04.964Z,100457.78
2024-04-13T10:58:42.931Z,100456.92
2024-04-13T11:01:22.660Z,100459.19
2024-04-13T11:04:08.331Z,100451.94
2024-04-13T11:06:43.434Z,100450.15
2024-04-13T11:09:16.654Z,100452.98
2024-04-13T11:11:49.023Z,100452.20
2024-04-13T11:14:23.527Z,100446.05
2024-04-13T11:16:56.322Z,100440.69
2024-04-13T11:19:28.744Z,100440.80
2024-04-13T11:22:05.943Z,100441.13
2024-04-13T11:24:38.883Z,100426.54
2024-04-13T11:27:11.350Z,100425.50
2024-04-13T11:29:45.559Z,100414.46
2024-04-13T11:32:19.305Z,100417.84
2024-04-13T11:34:55.403Z,100415.17
2024-04-13T11:37:27.833Z,100417.80
2024-04-13T11:40:00.253Z,100407.60
2024-04-13T11:42:42.008Z,100399.73
2024-04-13T11:45:18.964Z,100390.70
2024-04-13T11:47:52.340Z,100391.29
2024-04-13T11:50:25.094Z,100389.81
2024-04-13T11:52:58.467Z,100389.42
2024-04-13T11:55:39.215Z,100385.58
2024-04-13T11:58:22.480Z,100379.25
2024-04-13T12:00:56.235Z,100371.61
2024-04-13T12:03:28.268Z,100369.16
2024-04-13T12:06:02.095Z,100367.52
2024-04-13T12:08:34.769Z,100365.22
2024-04-13T12:11:08.631Z,100359.23
2024-04-13T12:13:44.027Z,100356.05
2024-04-13T12:16:18.843Z,100345.84
2024-04-13T12:18:51.144Z,100337.73
2024-04-13T12:21:27.372Z,100335.91
2024-04-13T12:24:01.917Z,100335.20
2024-04-13T12:26:37.162Z,100336.20
2024-04-13T12:29:09.627Z,100326.96
2024-04-13T12:31:46.577Z,100316.48
2024-04-13T12:34:25.489Z,100315.57
2024-04-13T12:36:58.350Z,100312.05
2024-04-13T12:39:31.765Z,100302.27
2024-04-13T12:42:09.393Z,100307.20
2024-04-13T12:44:44.108Z,100295.64
2024-04-13T12:47:18.359Z,100282.14
2024-04-13T12:49:50.455Z,100278.49
2024-04-13T12:52:27.357Z,100272.89
2024-04-13T12:54:59.999Z,100271.30
2024-04-13T12:57:33.675Z,100260.98
2024-04-13T13:00:07.752Z,100260.24
2024-04-13T13:02:40.837Z,100254.69
2024-04-13T13:05:14.460Z,100254.95
2024-04-13T13:07:46.524Z,100250.88
2024-04-13T13:10:18.389Z,100241.44
2024-04-13T13:12:50.495Z,100237.30
2024-04-13T13:15:25.228Z,100236.98
2024-04-13T13:18:00.621Z,100234.11
2024-04-13T13:20:34.082Z,100228.27
2024-04-13T13:23:08.520Z,100226.45
2024-04-13T13:25:42.750Z,100217.98
2024-04-13T13:28:15.549Z,100208.86
2024-04-13T13:30:48.271Z,100202.80
2024-04-13T13:33:21.423Z,100202.52
2024-04-13T13:35:57.637Z,100200.38
2024-04-13T13:38:30.047Z,100189.78
2024-04-13T13:41:06.104Z,100190.45
2024-04-13T13:43:38.580Z,100186.71
2024-04-13T13:46:11.047Z,100186.53
2024-04-13T13:48:45.677Z,100175.42
2024-04-13T13:51:17.697Z,100175.41
2024-04-13T13:53:49.722Z,100167.63
2024-04-13T13:56:22.359Z,100166.84
2024-04-13T13:58:55.941Z,100162.67
2024-04-13T14:01:28.361Z,100151.64
2024-04-13T14:04:02.409Z,100147.34
2024-04-13T14:06:36.322Z,100146.45
2024-04-13T14:09:08.793Z,100138.02
2024-04-13T14:11:42.362Z,100131.09
2024-04-13T14:14:18.967Z,100127.65
2024-04-13T14:16:52.585Z,100121.08
2024-04-13T14:19:25.055Z,100113.44
2024-04-13T14:21:59.974Z,100114.27
2024-04-13T14:24:36.741Z,100113.78
2024-04-13T14:27:09.392Z,100108.83
2024-04-13T14:29:42.219Z,100105.13
2024-04-13T14:32:16.142Z,100102.89
2024-04-13T14:34:48.785Z,100094.19
2024-04-13T14:37:21.056Z,100086.39
2024-04-13T14:39:55.226Z,100087.42
2024-04-13T14:42:30.588Z,100083.30
2024-04-13T14:45:07.351Z,100079.75
2024-04-13T14:47:42.336Z,100075.36
2024-04-13T14:50:15.140Z,100069.58
2024-04-13T14:52:48.191Z,100069.98
2024-04-13T14:55:24.170Z,100067.82
2024-04-13T14:57:57.062Z,100065.73
2024-04-13T15:00:29.220Z,100060.70
2024-04-13T15:03:04.398Z,100053.96
2024-04-13T15:05:37.846Z,100050.67
2024-04-13T15:08:12.991Z,100043.46
2024-04-13T15:10:50.178Z,100038.84
2024-04-13T15:13:23.671Z,100036.28
2024-04-13T15:15:57.311Z,100032.17
2024-04-13T15:18:29.622Z,100023.73
2024-04-13T15:21:02.556Z,100036.48
2024-04-13T15:23:35.305Z,100032.89
2024-04-13T15:26:10.271Z,100028.26
2024-04-13T15:28:45.433Z,100027.11
2024-04-13T15:31:18.721Z,100018.90
2024-04-13T15:33:51.021Z,100012.55
2024-04-13T15:36:25.217Z,100001.45
2024-04-13T15:38:59.932Z,100001.08
2024-04-13T15:41:32.652Z,99992.73
2024-04-13T15:44:05.102Z,99993.70
2024-04-13T15:46:38.724Z,99990.89
2024-04-13T15:49:11.178Z,99985.31
2024-04-13T15:51:45.056Z,99985.63
2024-04-13T15:54:18.048Z,99979.56
2024-04-13T15:56:50.217Z,99971.86
2024-04-13T15:59:28.397Z,99977.73
2024-04-13T16:02:10.133Z,99970.64
2024-04-13T16:04:47.249Z,99972.67
2024-04-13T16:07:19.700Z,99968.92
2024-04-13T16:09:55.781Z,99964.33
2024-04-13T16:12:28.713Z,99963.52
2024-04-13T16:15:01.123Z,99961.61
2024-04-13T16:17:37.920Z,99955.55
2024-04-13T16:20:17.550Z,99954.67
2024-04-13T16:22:53.588Z,99948.94
2024-04-13T16:25:27.876Z,99946.60
2024-04-13T16:28:02.357Z,99942.04
2024-04-13T16:30:35.559Z,99933.25
2024-04-13T16:33:13.554Z,99928.60
2024-04-13T16:35:47.036Z,99926.30
2024-04-13T16:38:19.017Z,99920.55
2024-04-13T16:40:54.773Z,99921.38
2024-04-13T16:43:31.827Z,99917.09
2024-04-13T16:46:04.919Z,99921.36
2024-04-13T16:48:38.402Z,99916.14
2024-04-13T16:51:10.719Z,99919.29
2024-04-13T16:53:45.509Z,99921.63
2024-04-13T16:56:17.733Z,99913.48
2024-04-13T16:58:50.041Z,99917.02
2024-04-13T17:01:26.693Z,99910.38
2024-04-13T17:03:59.025Z,99905.77
2024-04-13T17:06:31.403Z,99909.34
2024-04-13T17:09:05.659Z,99908.23
2024-04-13T17:11:38.164Z,99907.51
2024-04-13T17:14:10.292Z,99911.77
2024-04-13T17:16:46.644Z,99907.91
2024-04-13T17:19:18.819Z,99904.83
2024-04-13T17:21:51.856Z,99894.42
2024-04-13T17:24:26.607Z,99901.30
2024-04-13T17:26:57.128Z,99898.55
2024-04-13T17:29:30.545Z,99894.06
2024-04-13T17:32:06.173Z,99890.55
2024-04-13T17:34:38.510Z,99887.73
2024-04-13T17:37:10.847Z,99890.84
2024-04-13T17:39:52.402Z,99886.34
2024-04-13T17:42:25.539Z,99885.73
2024-04-13T17:44:57.917Z,99881.40
2024-04-13T17:47:29.786Z,99875.45
2024-04-13T17:50:06.565Z,99877.83
2024-04-13T17:52:39.062Z,99868.06
2024-04-13T17:55:11.349Z,99858.41
2024-04-13T17:57:48.524Z,99856.98
2024-04-13T18:00:22.101Z,99854.30
2024-04-13T18:02:56.726Z,99848.86
2024-04-13T18:05:27.952Z,99853.72
2024-04-13T18:08:00.205Z,99856.84
2024-04-13T18:10:34.463Z,99862.80
2024-04-13T18:13:07.194Z,99867.31
2024-04-13T18:15:39.329Z,99862.25
2024-04-13T18:18:12.463Z,99864.89
2024-04-13T18:20:44.808Z,99863.89
2024-04-13T18:23:23.202Z,99863.81
2024-04-13T18:25:56.087Z,99864.98
2024-04-13T18:28:31.005Z,99866.04
2024-04-13T18:31:05.130Z,99862.23
2024-04-13T18:33:42.478Z,99860.89
2024-04-13T18:36:15.993Z,99865.19
2024-04-13T18:38:52.967Z,99867.51
2024-04-13T18:41:27.222Z,99868.45
2024-04-13T18:43:59.610Z,99867.98
2024-04-13T18:46:34.971Z,99869.13
2024-04-13T18:49:07.889Z,99870.18
2024-04-13T18:51:42.016Z,99870.39
2024-04-13T18:54:14.756Z,99873.17
2024-04-13T18:56:47.821Z,99872.21
2024-04-13T18:59:20.764Z,99873.90
2024-04-13T19:01:55.162Z,99867.27
2024-04-13T19:04:27.900Z,99867.75
2024-04-13T19:07:00.125Z,99869.58
2024-04-13T19:09:35.114Z,99868.89
2024-04-13T19:12:08.927Z,99870.78
2024-04-13T19:14:40.833Z,99867.81
2024-04-13T19:17:16.031Z,99863.77
2024-04-13T19:19:47.581Z,99862.52
2024-04-13T19:22:20.263Z,99860.80
2024-04-13T19:24:58.102Z,99862.23
2024-04-13T19:27:33.085Z,99857.56
2024-04-13T19:30:08.189Z,99857.70
2024-04-13T19:32:40.075Z,99861.59
2024-04-13T19:35:13.803Z,99858.84
2024-04-13T19:37:46.600Z,99866.60
2024-04-13T19:40:19.833Z,99869.98
2024-04-13T19:42:53.003Z,99866.95
2024-04-13T19:45:28.321Z,99871.96
2024-04-13T19:48:00.348Z,99871.52
2024-04-13T19:50:35.983Z,99872.25
2024-04-13T19:53:08.202Z,99868.88
2024-04-13T19:55:40.760Z,99875.48
2024-04-13T19:58:14.464Z,99870.81
2024-04-13T20:00:49.410Z,99865.17
2024-04-13T20:03:25.726Z,99861.15
2024-04-13T20:06:03.327Z,99859.63
2024-04-13T20:08:37.865Z,99867.16
2024-04-13T20:11:14.527Z,99865.69
2024-04-13T20:13:48.363Z,99864.20
2024-04-13T20:16:40.765Z,99868.20
2024-04-13T20:19:15.183Z,99861.02
2024-04-13T20:21:48.290Z,99867.27
2024-04-13T20:24:23.097Z,99863.58
2024-04-13T20:26:58.535Z,99858.75
2024-04-13T20:29:30.393Z,99860.22
2024-04-13T20:32:06.264Z,99861.60
2024-04-13T20:34:38.641Z,99858.02
2024-04-13T20:37:11.046Z,99854.41
2024-04-13T20:39:48.311Z,99851.35
2024-04-13T20:42:20.134Z,99849.14
2024-04-13T20:44:55.511Z,99839.69
2024-04-13T20:47:28.225Z,99837.49
2024-04-13T20:50:00.311Z,99830.85
2024-04-13T20:52:52.540Z,99831.80
2024-04-13T20:55:32.352Z,99828.48
2024-04-13T20:58:06.608Z,99830.92
2024-04-13T21:00:40.648Z,99832.45
2024-04-13T21:03:14.633Z,99837.00
2024-04-13T21:05:49.635Z,99834.77
2024-04-13T21:08:22.470Z,99832.85
2024-04-13T21:10:56.181Z,99827.36
2024-04-13T21:13:28.385Z,99828.66
2024-04-13T21:16:00.871Z,99823.89
2024-04-13T21:18:35.408Z,99825.36
2024-04-13T21:21:08.887Z,99827.73
2024-04-13T21:23:40.865Z,99826.89
2024-04-13T21:26:16.828Z,99828.72
2024-04-13T21:28:48.917Z,99826.26
2024-04-13T21:31:20.811Z,99824.36
2024-04-13T21:33:55.851Z,99819.23
2024-04-13T21:36:32.788Z,99820.23
2024-04-13T21:39:08.205Z,99823.01
2024-04-13T21:41:40.759Z,99816.13
2024-04-13T21:44:16.429Z,99814.16
2024-04-13T21:46:51.098Z,99813.10
2024-04-13T21:49:28.690Z,99818.05
2024-04-13T21:52:05.424Z,99818.64
2024-04-13T21:54:44.621Z,99818.11
2024-04-13T21:57:18.194Z,99814.80
2024-04-13T21:59:50.348Z,99814.84
2024-04-13T22:02:25.117Z,99818.66
2024-04-13T22:05:00.025Z,99814.30
2024-04-13T22:07:34.717Z,99815.29
2024-04-13T22:10:08.371Z,99817.14
2024-04-13T22:12:44.437Z,99816.39
2024-04-13T22:15:17.451Z,99820.08
2024-04-13T22:17:49.702Z,99820.11
2024-04-13T22:20:23.520Z,99817.27
2024-04-13T22:22:56.523Z,99820.17
2024-04-13T22:25:30.584Z,99817.16
2024-04-13T22:28:04.740Z,99820.39
2024-04-13T22:30:39.925Z,99821.61
2024-04-13T22:33:13.675Z,99824.13
2024-04-13T22:35:53.300Z,99828.22
2024-04-13T22:38:27.258Z,99830.64
2024-04-13T22:40:59.181Z,99833.07
2024-04-13T22:43:34.625Z,99832.76
2024-04-13T22:46:07.203Z,99830.88
2024-04-13T22:48:40.111Z,99830.90
2024-04-13T22:51:13.774Z,99826.61
2024-04-13T22:53:48.031Z,99827.95
2024-04-13T22:56:19.817Z,99824.46
2024-04-13T22:58:53.899Z,99829.05
2024-04-13T23:01:26.876Z,99818.65
2024-04-13T23:03:58.775Z,99820.33
2024-04-13T23:06:30.922Z,99819.27
2024-04-13T23:09:06.650Z,99820.07
2024-04-13T23:11:40.007Z,99815.76
2024-04-13T23:14:15.402Z,99813.78
2024-04-13T23:16:50.158Z,99810.67
2024-04-13T23:19:23.915Z,99810.52
2024-04-13T23:21:57.963Z,99809.04
2024-04-13T23:24:30.023Z,99814.08
2024-04-13T23:27:05.146Z,99808.98
2024-04-13T23:29:37.759Z,99803.46
2024-04-13T23:32:10.392Z,99802.20
2024-04-13T23:34:47.198Z,99803.33
2024-04-13T23:37:18.962Z,99801.55
2024-04-13T23:39:53.473Z,99796.52
2024-04-13T23:42:26.711Z,99792.52
2024-04-13T23:44:59.016Z,99791.11
2024-04-13T23:47:32.209Z,99792.16
2024-04-13T23:50:05.590Z,99792.25
2024-04-13T23:52:37.920Z,99792.66
2024-04-13T23:55:10.775Z,99792.07
2024-04-13T23:57:45.759Z,99790.20
